createdAt,value
2023-05-17T00:02:27.594Z,15.53
2023-05-17T00:04:56.724Z,15.48
2023-05-17T00:07:25.394Z,15.60
2023-05-17T00:09:54.098Z,15.39
2023-05-17T00:12:22.381Z,15.37
2023-05-17T00:14:51.029Z,15.40
2023-05-17T00:17:20.864Z,15.69
2023-05-17T00:19:49.563Z,15.36
2023-05-17T00:22:17.925Z,15.42
2023-05-17T00:24:46.899Z,15.28
2023-05-17T00:27:15.043Z,15.28
2023-05-17T00:29:43.969Z,15.29
2023-05-17T00:32:12.310Z,15.19
2023-05-17T00:34:42.538Z,15.55
2023-05-17T00:37:10.915Z,15.11
2023-05-17T00:39:39.481Z,15.13
2023-05-17T00:42:08.547Z,15.53
2023-05-17T00:44:37.134Z,15.21
2023-05-17T00:47:05.815Z,15.34
2023-05-17T00:49:34.597Z,15.19
2023-05-17T00:52:04.426Z,15.60
2023-05-17T00:54:33.316Z,15.20
2023-05-17T00:57:01.849Z,15.37
2023-05-17T00:59:31.102Z,15.36
2023-05-17T01:01:59.726Z,15.40
2023-05-17T01:04:28.353Z,15.29
2023-05-17T01:06:57.472Z,15.40
2023-05-17T01:09:27.520Z,15.60
2023-05-17T01:12:00.958Z,15.60
2023-05-17T01:14:40.947Z,15.81
2023-05-17T01:17:15.831Z,15.72
2023-05-17T01:19:53.162Z,15.76
2023-05-17T01:22:29.577Z,15.74
2023-05-17T01:25:09.974Z,15.84
2023-05-17T01:27:42.689Z,15.64
2023-05-17T01:30:14.336Z,15.64
2023-05-17T01:32:43.620Z,15.47
2023-05-17T01:35:13.092Z,15.49
2023-05-17T01:37:41.708Z,15.40
2023-05-17T01:40:11.405Z,15.53
2023-05-17T01:42:43.350Z,15.89
2023-05-17T01:45:14.901Z,15.84
2023-05-17T01:47:45.012Z,16.46
2023-05-17T01:50:16.583Z,15.96
2023-05-17T01:52:51.464Z,16.06
2023-05-17T01:55:27.786Z,16.00
2023-05-17T01:57:58.615Z,15.93
2023-05-17T02:00:28.163Z,15.76
2023-05-17T02:02:56.675Z,15.47
2023-05-17T02:05:25.589Z,15.59
2023-05-17T02:07:54.005Z,15.56
2023-05-17T02:10:22.789Z,15.61
2023-05-17T02:12:51.139Z,15.45
2023-05-17T02:15:21.108Z,15.84
2023-05-17T02:17:49.855Z,15.59
2023-05-17T02:20:18.493Z,15.61
2023-05-17T02:22:46.968Z,15.43
2023-05-17T02:25:15.650Z,15.39
2023-05-17T02:27:43.917Z,15.24
2023-05-17T02:30:15.746Z,15.46
2023-05-17T02:32:48.062Z,15.63
2023-05-17T02:35:16.914Z,15.29
2023-05-17T02:37:45.429Z,15.26
2023-05-17T02:40:14.870Z,15.47
2023-05-17T02:42:43.382Z,15.01
2023-05-17T02:45:12.800Z,15.21
2023-05-17T02:47:41.543Z,14.94
2023-05-17T02:50:11.992Z,15.29
2023-05-17T02:52:40.903Z,14.93
2023-05-17T02:55:11.215Z,15.19
2023-05-17T02:57:39.535Z,14.97
2023-05-17T03:00:12.811Z,15.22
2023-05-17T03:02:41.414Z,15.01
2023-05-17T03:05:12.333Z,15.31
2023-05-17T03:07:40.840Z,14.98
2023-05-17T03:10:10.267Z,15.06
2023-05-17T03:12:38.911Z,14.94
2023-05-17T03:15:08.374Z,15.22
2023-05-17T03:17:37.110Z,14.96
2023-05-17T03:20:08.004Z,15.31
2023-05-17T03:22:38.929Z,15.20
2023-05-17T03:25:07.765Z,14.92
2023-05-17T03:27:36.414Z,14.75
2023-05-17T03:30:05.424Z,15.00
2023-05-17T03:32:33.859Z,14.80
2023-05-17T03:35:02.600Z,14.90
2023-05-17T03:37:30.985Z,14.71
2023-05-17T03:40:01.196Z,15.08
2023-05-17T03:42:29.712Z,14.77
2023-05-17T03:44:58.871Z,14.83
2023-05-17T03:47:27.456Z,14.66
2023-05-17T03:49:56.185Z,14.76
2023-05-17T03:52:25.086Z,14.55
2023-05-17T03:54:53.802Z,14.67
2023-05-17T03:57:23.673Z,15.07
2023-05-17T03:59:52.333Z,14.74
2023-05-17T04:02:21.265Z,14.91
2023-05-17T04:04:51.445Z,14.89
2023-05-17T04:07:20.300Z,14.75
2023-05-17T04:09:49.109Z,14.71
2023-05-17T04:12:17.586Z,14.67
2023-05-17T04:14:47.497Z,14.86
2023-05-17T04:17:16.951Z,14.59
2023-05-17T04:19:45.956Z,14.44
2023-05-17T04:22:14.410Z,14.57
2023-05-17T04:24:43.163Z,14.60
2023-05-17T04:27:11.446Z,14.66
2023-05-17T04:29:41.058Z,14.80
2023-05-17T04:32:11.093Z,15.04
2023-05-17T04:34:39.757Z,14.80
2023-05-17T04:37:08.209Z,14.61
2023-05-17T04:39:36.976Z,14.54
2023-05-17T04:42:06.188Z,14.63
2023-05-17T04:44:34.937Z,14.50
2023-05-17T04:47:04.186Z,14.52
2023-05-17T04:49:34.702Z,14.83
2023-05-17T04:52:05.923Z,14.68
2023-05-17T04:54:35.042Z,14.57
2023-05-17T04:57:03.799Z,14.74
2023-05-17T04:59:32.656Z,14.82
2023-05-17T05:02:01.315Z,14.71
2023-05-17T05:04:29.962Z,14.77
2023-05-17T05:06:59.970Z,15.06
2023-05-17T05:09:28.688Z,14.89
2023-05-17T05:11:57.788Z,14.74
2023-05-17T05:14:26.625Z,14.84
2023-05-17T05:16:55.780Z,14.67
2023-05-17T05:19:24.893Z,14.85
2023-05-17T05:21:53.273Z,14.77
2023-05-17T05:24:23.695Z,15.09
2023-05-17T05:26:52.203Z,14.78
2023-05-17T05:29:20.848Z,14.86
2023-05-17T05:31:49.203Z,14.90
2023-05-17T05:34:18.035Z,14.86
2023-05-17T05:36:47.432Z,14.91
2023-05-17T05:39:16.370Z,14.79
2023-05-17T05:41:46.497Z,15.20
2023-05-17T05:44:15.297Z,14.96
2023-05-17T05:46:43.470Z,14.83
2023-05-17T05:49:12.371Z,14.98
2023-05-17T05:51:40.892Z,14.91
2023-05-17T05:54:09.928Z,15.03
2023-05-17T05:56:38.239Z,14.97
2023-05-17T05:59:08.879Z,15.30
2023-05-17T06:01:37.810Z,14.84
2023-05-17T06:04:06.785Z,15.01
2023-05-17T06:06:35.439Z,14.86
2023-05-17T06:09:07.233Z,14.81
2023-05-17T06:11:35.392Z,15.82
2023-05-17T06:14:04.160Z,14.90
2023-05-17T06:16:33.988Z,15.22
2023-05-17T06:19:02.911Z,14.87
2023-05-17T06:21:31.339Z,14.80
2023-05-17T06:24:01.398Z,14.83
2023-05-17T06:26:31.665Z,14.79
2023-05-17T06:29:00.472Z,14.85
2023-05-17T06:31:29.577Z,14.99
2023-05-17T06:33:59.882Z,15.12
2023-05-17T06:36:28.187Z,14.80
2023-05-17T06:38:57.067Z,14.79
2023-05-17T06:41:25.503Z,14.65
2023-05-17T06:43:54.155Z,14.70
2023-05-17T06:46:22.805Z,14.55
2023-05-17T06:48:51.687Z,14.68
2023-05-17T06:51:21.583Z,14.90
2023-05-17T06:53:50.466Z,14.64
2023-05-17T06:56:18.901Z,14.54
2023-05-17T06:58:47.678Z,14.61
2023-05-17T07:01:17.199Z,14.42
2023-05-17T07:03:46.019Z,14.37
2023-05-17T07:06:14.565Z,14.16
2023-05-17T07:08:44.741Z,14.47
2023-05-17T07:11:13.357Z,14.14
2023-05-17T07:13:42.122Z,14.12
2023-05-17T07:16:10.501Z,14.09
2023-05-17T07:18:39.333Z,14.28
2023-05-17T07:21:08.612Z,14.20
2023-05-17T07:23:37.513Z,14.27
2023-05-17T07:26:07.351Z,14.46
2023-05-17T07:28:35.940Z,14.02
2023-05-17T07:31:04.403Z,14.00
2023-05-17T07:33:33.194Z,13.88
2023-05-17T07:36:01.766Z,13.90
2023-05-17T07:38:30.651Z,13.77
2023-05-17T07:40:59.244Z,13.83
2023-05-17T07:43:29.705Z,14.06
2023-05-17T07:45:58.187Z,13.81
2023-05-17T07:48:27.516Z,13.70
2023-05-17T07:50:56.586Z,13.97
2023-05-17T07:53:25.378Z,13.69
2023-05-17T07:55:53.994Z,13.80
2023-05-17T07:58:22.772Z,13.67
2023-05-17T08:00:52.832Z,13.99
2023-05-17T08:03:21.671Z,13.74
2023-05-17T08:05:50.252Z,13.74
2023-05-17T08:08:19.751Z,13.85
2023-05-17T08:10:48.207Z,13.60
2023-05-17T08:13:17.048Z,13.85
2023-05-17T08:15:45.916Z,13.80
2023-05-17T08:18:16.126Z,14.21
2023-05-17T08:20:45.890Z,13.83
2023-05-17T08:23:15.741Z,13.99
2023-05-17T08:25:44.473Z,13.98
2023-05-17T08:28:13.285Z,13.92
2023-05-17T08:30:41.927Z,13.96
2023-05-17T08:33:10.986Z,14.05
2023-05-17T08:35:40.836Z,14.25
2023-05-17T08:38:10.536Z,14.37
2023-05-17T08:40:39.011Z,14.19
2023-05-17T08:43:09.061Z,14.53
2023-05-17T08:45:38.181Z,14.24
2023-05-17T08:48:07.698Z,14.24
2023-05-17T08:50:36.913Z,14.19
2023-05-17T08:53:07.138Z,14.35
2023-05-17T08:55:36.564Z,14.13
2023-05-17T08:58:05.643Z,14.16
2023-05-17T09:00:35.237Z,13.92
2023-05-17T09:03:04.104Z,13.81
2023-05-17T09:05:33.092Z,13.71
2023-05-17T09:08:02.287Z,13.72
2023-05-17T09:10:32.688Z,13.93
2023-05-17T09:13:01.337Z,13.57
2023-05-17T09:15:31.305Z,13.61
2023-05-17T09:18:00.450Z,13.72
2023-05-17T09:20:34.334Z,13.93
2023-05-17T09:23:04.319Z,13.86
2023-05-17T09:25:34.411Z,14.17
2023-05-17T09:28:03.902Z,13.94
2023-05-17T09:30:34.497Z,14.16
2023-05-17T09:33:07.396Z,14.41
2023-05-17T09:35:36.943Z,14.34
2023-05-17T09:38:08.702Z,14.61
2023-05-17T09:40:41.616Z,14.68
2023-05-17T09:43:13.082Z,14.59
2023-05-17T09:45:41.526Z,15.14
2023-05-17T09:48:15.280Z,14.66
2023-05-17T09:50:48.014Z,14.65
2023-05-17T09:53:27.373Z,14.75
2023-05-17T09:56:00.038Z,14.52
2023-05-17T09:58:30.032Z,14.32
2023-05-17T10:01:01.909Z,14.38
2023-05-17T10:03:33.410Z,14.27
2023-05-17T10:06:05.750Z,14.51
2023-05-17T10:08:35.162Z,14.33
2023-05-17T10:11:11.919Z,14.67
2023-05-17T10:13:44.986Z,14.63
2023-05-17T10:16:13.648Z,14.20
2023-05-17T10:18:42.414Z,14.05
2023-05-17T10:21:11.801Z,14.19
2023-05-17T10:23:42.224Z,14.19
2023-05-17T10:26:12.081Z,14.43
2023-05-17T10:28:41.354Z,14.16
2023-05-17T10:31:09.941Z,14.11
2023-05-17T10:33:40.019Z,14.42
2023-05-17T10:36:08.803Z,14.29
2023-05-17T10:38:42.542Z,14.36
2023-05-17T10:41:14.173Z,14.80
2023-05-17T10:43:43.695Z,14.54
2023-05-17T10:46:16.964Z,14.86
2023-05-17T10:48:46.965Z,14.44
2023-05-17T10:51:18.856Z,14.37
2023-05-17T10:54:06.746Z,15.06
2023-05-17T10:56:37.351Z,14.65
2023-05-17T10:59:25.083Z,15.09
2023-05-17T11:01:56.402Z,14.81
2023-05-17T11:04:26.180Z,15.43
2023-05-17T11:06:57.601Z,14.75
2023-05-17T11:09:26.202Z,14.33
2023-05-17T11:12:10.174Z,14.92
2023-05-17T11:14:48.371Z,14.81
2023-05-17T11:17:20.925Z,14.51
2023-05-17T11:20:06.489Z,14.90
2023-05-17T11:22:43.297Z,14.79
2023-05-17T11:25:13.347Z,14.32
2023-05-17T11:27:48.187Z,14.58
2023-05-17T11:30:23.033Z,14.77
2023-05-17T11:32:53.556Z,14.58
2023-05-17T11:35:27.385Z,14.71
2023-05-17T11:38:14.794Z,14.90
2023-05-17T11:40:43.961Z,14.06
2023-05-17T11:43:15.838Z,14.31
2023-05-17T11:45:46.131Z,14.06
2023-05-17T11:48:15.634Z,14.02
2023-05-17T11:50:45.688Z,14.06
2023-05-17T11:53:14.713Z,14.03
2023-05-17T11:55:44.436Z,13.92
2023-05-17T11:58:16.714Z,14.13
2023-05-17T12:00:46.003Z,13.71
2023-05-17T12:03:18.698Z,14.08
2023-05-17T12:05:48.703Z,13.69
2023-05-17T12:08:18.535Z,13.99
2023-05-17T12:10:49.348Z,14.00
2023-05-17T12:13:19.054Z,14.12
2023-05-17T12:15:52.685Z,14.25
2023-05-17T12:18:21.406Z,13.70
2023-05-17T12:20:57.435Z,14.15
2023-05-17T12:23:32.618Z,13.98
2023-05-17T12:26:06.627Z,13.74
2023-05-17T12:28:38.185Z,13.65
2023-05-17T12:31:09.689Z,13.54
2023-05-17T12:33:41.572Z,13.50
2023-05-17T12:36:11.278Z,13.35
2023-05-17T12:38:41.991Z,13.61
2023-05-17T12:41:12.942Z,13.61
2023-05-17T12:43:45.652Z,13.62
2023-05-17T12:46:15.611Z,13.48
2023-05-17T12:48:44.237Z,13.18
2023-05-17T12:51:14.168Z,13.36
2023-05-17T12:53:43.668Z,13.31
2023-05-17T12:56:16.876Z,13.51
2023-05-17T12:59:04.526Z,13.54
2023-05-17T13:01:37.854Z,13.63
2023-05-17T13:04:06.824Z,13.24
2023-05-17T13:06:54.368Z,14.01
2023-05-17T13:09:24.338Z,13.60
2023-05-17T13:11:54.878Z,13.60
2023-05-17T13:14:38.324Z,14.05
2023-05-17T13:17:08.248Z,13.61
2023-05-17T13:19:36.948Z,13.26
2023-05-17T13:22:06.765Z,13.54
2023-05-17T13:24:36.272Z,13.55
2023-05-17T13:27:05.791Z,13.51
2023-05-17T13:29:39.349Z,13.62
2023-05-17T13:32:12.621Z,13.62
2023-05-17T13:34:42.796Z,13.20
2023-05-17T13:37:12.767Z,13.04
2023-05-17T13:39:42.743Z,13.29
2023-05-17T13:42:11.888Z,13.05
2023-05-17T13:44:41.957Z,13.10
2023-05-17T13:47:12.660Z,13.32
2023-05-17T13:49:41.279Z,13.08
2023-05-17T13:52:10.211Z,12.91
2023-05-17T13:54:39.243Z,13.07
2023-05-17T13:57:08.665Z,13.11
2023-05-17T13:59:36.965Z,12.96
2023-05-17T14:02:05.808Z,13.08
2023-05-17T14:04:36.357Z,13.34
2023-05-17T14:07:05.685Z,12.99
2023-05-17T14:09:34.775Z,13.04
2023-05-17T14:12:03.499Z,13.03
2023-05-17T14:14:32.064Z,13.17
2023-05-17T14:17:01.745Z,13.27
2023-05-17T14:19:30.527Z,13.23
2023-05-17T14:22:01.112Z,13.63
2023-05-17T14:24:29.490Z,13.20
2023-05-17T14:26:58.779Z,13.24
2023-05-17T14:29:27.122Z,13.15
2023-05-17T14:31:56.023Z,13.17
2023-05-17T14:34:24.592Z,13.24
2023-05-17T14:36:53.565Z,13.26
2023-05-17T14:39:23.302Z,13.60
2023-05-17T14:41:52.146Z,13.43
2023-05-17T14:44:20.740Z,13.29
2023-05-17T14:46:49.522Z,13.38
2023-05-17T14:49:17.893Z,13.25
2023-05-17T14:51:46.575Z,13.27
2023-05-17T14:54:15.223Z,13.13
2023-05-17T14:56:45.520Z,13.45
2023-05-17T14:59:13.976Z,13.11
2023-05-17T15:01:42.613Z,13.11
2023-05-17T15:04:11.084Z,13.04
2023-05-17T15:06:39.982Z,13.14
2023-05-17T15:09:12.434Z,13.08
2023-05-17T15:11:42.337Z,13.17
2023-05-17T15:14:12.134Z,13.37
2023-05-17T15:16:41.976Z,13.27
2023-05-17T15:19:10.375Z,13.18
2023-05-17T15:21:39.043Z,13.18
2023-05-17T15:24:08.260Z,13.20
2023-05-17T15:26:36.931Z,13.09
2023-05-17T15:29:05.410Z,13.21
2023-05-17T15:31:35.418Z,13.49
2023-05-17T15:34:04.996Z,13.05
2023-05-17T15:36:34.738Z,13.17
2023-05-17T15:39:03.203Z,13.06
2023-05-17T15:41:33.188Z,13.39
2023-05-17T15:44:01.948Z,13.08
2023-05-17T15:46:30.802Z,13.15
2023-05-17T15:49:00.851Z,13.44
2023-05-17T15:51:29.322Z,13.12
2023-05-17T15:53:57.818Z,13.28
2023-05-17T15:56:27.231Z,13.21
2023-05-17T15:58:55.744Z,13.22
2023-05-17T16:01:24.610Z,13.16
2023-05-17T16:03:53.035Z,13.17
2023-05-17T16:06:23.761Z,13.55
2023-05-17T16:08:52.243Z,13.31
2023-05-17T16:11:21.557Z,13.30
2023-05-17T16:13:49.777Z,13.35
2023-05-17T16:16:18.404Z,13.38
2023-05-17T16:18:46.901Z,13.51
2023-05-17T16:21:16.086Z,13.59
2023-05-17T16:23:46.610Z,14.04
2023-05-17T16:26:15.972Z,13.82
2023-05-17T16:28:44.261Z,13.88
2023-05-17T16:31:13.179Z,13.93
2023-05-17T16:33:42.558Z,13.96
2023-05-17T16:36:12.610Z,14.15
2023-05-17T16:38:41.113Z,14.12
2023-05-17T16:41:11.257Z,14.47
2023-05-17T16:43:39.501Z,14.12
2023-05-17T16:46:08.188Z,14.15
2023-05-17T16:48:36.708Z,14.08
2023-05-17T16:51:05.835Z,14.25
2023-05-17T16:53:34.222Z,14.03
2023-05-17T16:56:02.907Z,14.01
2023-05-17T16:58:32.556Z,14.25
2023-05-17T17:01:01.801Z,13.86
2023-05-17T17:03:30.389Z,13.78
2023-05-17T17:05:59.164Z,13.84
2023-05-17T17:08:27.701Z,13.85
2023-05-17T17:10:56.357Z,13.95
2023-05-17T17:13:24.974Z,13.81
2023-05-17T17:15:55.029Z,14.13
2023-05-17T17:18:24.212Z,13.76
2023-05-17T17:20:52.843Z,13.77
2023-05-17T17:23:21.983Z,13.70
2023-05-17T17:25:50.549Z,13.65
2023-05-17T17:28:18.996Z,13.63
2023-05-17T17:30:48.607Z,13.77
2023-05-17T17:33:18.485Z,13.96
2023-05-17T17:35:47.078Z,13.61
2023-05-17T17:38:15.625Z,13.64
2023-05-17T17:40:44.396Z,13.70
2023-05-17T17:43:13.040Z,13.55
2023-05-17T17:45:41.915Z,13.63
2023-05-17T17:48:10.723Z,13.60
2023-05-17T17:50:41.412Z,13.92
2023-05-17T17:53:09.952Z,13.51
2023-05-17T17:55:38.760Z,13.61
2023-05-17T17:58:07.348Z,13.46
2023-05-17T18:00:36.239Z,13.58
2023-05-17T18:03:04.755Z,13.39
2023-05-17T18:05:34.598Z,13.55
2023-05-17T18:08:05.008Z,13.69
2023-05-17T18:10:33.670Z,13.41
2023-05-17T18:13:02.214Z,13.24
2023-05-17T18:15:30.919Z,13.22
2023-05-17T18:17:59.828Z,13.25
2023-05-17T18:20:28.853Z,13.19
2023-05-17T18:22:57.463Z,13.11
2023-05-17T18:25:27.745Z,13.40
2023-05-17T18:27:56.052Z,13.07
2023-05-17T18:30:25.001Z,13.21
2023-05-17T18:32:53.527Z,13.11
2023-05-17T18:35:22.397Z,13.07
2023-05-17T18:37:51.271Z,13.16
2023-05-17T18:40:19.956Z,13.11
2023-05-17T18:42:49.887Z,13.47
2023-05-17T18:45:19.579Z,13.27
2023-05-17T18:47:48.159Z,13.14
2023-05-17T18:50:17.066Z,13.25
2023-05-17T18:52:45.516Z,13.13
2023-05-17T18:55:14.911Z,13.41
2023-05-17T18:57:46.914Z,13.64
2023-05-17T19:00:17.484Z,13.53
2023-05-17T19:02:46.270Z,13.12
2023-05-17T19:05:15.269Z,13.15
2023-05-17T19:07:44.428Z,13.06
2023-05-17T19:10:13.796Z,13.23
2023-05-17T19:12:44.799Z,13.09
2023-05-17T19:15:14.286Z,13.20
2023-05-17T19:17:44.220Z,13.46
2023-05-17T19:20:13.579Z,13.22
2023-05-17T19:22:42.244Z,13.07
2023-05-17T19:25:11.049Z,13.12
2023-05-17T19:27:39.482Z,13.09
2023-05-17T19:30:09.883Z,13.31
2023-05-17T19:32:39.440Z,13.19
2023-05-17T19:35:10.849Z,13.45
2023-05-17T19:37:39.404Z,13.09
2023-05-17T19:40:09.597Z,13.32
2023-05-17T19:42:39.580Z,13.19
2023-05-17T19:45:11.176Z,13.51
2023-05-17T19:47:39.996Z,13.19
2023-05-17T19:50:12.108Z,13.49
2023-05-17T19:52:41.221Z,13.14
2023-05-17T19:55:10.258Z,13.20
2023-05-17T19:57:38.850Z,12.97
2023-05-17T20:00:09.246Z,13.21
2023-05-17T20:02:37.961Z,13.03
2023-05-17T20:05:07.576Z,13.27
2023-05-17T20:07:38.129Z,13.37
2023-05-17T20:10:07.010Z,13.09
2023-05-17T20:12:35.375Z,13.02
2023-05-17T20:15:06.305Z,13.23
2023-05-17T20:17:34.767Z,13.21
2023-05-17T20:20:05.454Z,13.43
2023-05-17T20:22:33.920Z,13.15
2023-05-17T20:25:04.415Z,13.52
2023-05-17T20:27:32.965Z,13.11
2023-05-17T20:30:01.749Z,13.22
2023-05-17T20:32:30.358Z,13.18
2023-05-17T20:34:59.233Z,12.97
2023-05-17T20:37:27.703Z,13.02
2023-05-17T20:39:57.531Z,12.93
2023-05-17T20:42:28.332Z,13.28
2023-05-17T20:44:58.074Z,13.03
2023-05-17T20:47:26.667Z,13.01
2023-05-17T20:49:56.763Z,12.99
2023-05-17T20:52:38.291Z,12.89
2023-05-17T20:55:10.024Z,13.19
2023-05-17T20:57:40.071Z,13.23
2023-05-17T21:00:11.882Z,13.09
2023-05-17T21:02:40.815Z,12.93
2023-05-17T21:05:10.954Z,13.04
2023-05-17T21:07:40.491Z,12.92
2023-05-17T21:10:10.756Z,13.19
2023-05-17T21:12:40.607Z,13.31
2023-05-17T21:17:43.444Z,12.89
2023-05-17T21:20:13.383Z,13.14
2023-05-17T21:22:41.962Z,12.97
2023-05-17T21:25:11.659Z,13.09
2023-05-17T21:27:41.409Z,13.29
2023-05-17T21:30:11.066Z,13.05
2023-05-17T21:32:39.524Z,12.82
2023-05-17T21:35:09.079Z,12.81
2023-05-17T21:37:40.217Z,12.93
2023-05-17T21:40:10.136Z,12.95
2023-05-17T21:42:38.954Z,12.66
2023-05-17T21:45:10.136Z,13.08
2023-05-17T21:47:39.106Z,12.82
2023-05-17T21:50:09.118Z,12.95
2023-05-17T21:52:38.347Z,12.76
2023-05-17T21:55:08.647Z,12.93
2023-05-17T21:57:37.516Z,12.80
2023-05-17T22:00:12.746Z,12.89
2023-05-17T22:02:41.234Z,12.72
2023-05-17T22:05:11.073Z,12.91
2023-05-17T22:07:40.287Z,12.98
2023-05-17T22:10:10.378Z,12.77
2023-05-17T22:12:38.831Z,12.64
2023-05-17T22:15:11.050Z,13.01
2023-05-17T22:17:51.182Z,12.69
2023-05-17T22:20:23.645Z,13.64
2023-05-17T22:22:52.653Z,12.68
2023-05-17T22:25:21.317Z,12.63
2023-05-17T22:27:49.962Z,12.68
2023-05-17T22:30:20.136Z,13.04
2023-05-17T22:32:48.527Z,12.66
2023-05-17T22:35:17.281Z,12.67
2023-05-17T22:37:45.584Z,12.57
2023-05-17T22:40:14.878Z,12.84
2023-05-17T22:42:43.327Z,12.60
2023-05-17T22:45:14.697Z,12.86
2023-05-17T22:47:46.920Z,13.04
2023-05-17T22:50:15.974Z,12.67
2023-05-17T22:52:46.665Z,12.70
2023-05-17T22:55:15.429Z,12.63
2023-05-17T22:57:43.901Z,12.66
2023-05-17T23:00:13.791Z,12.78
2023-05-17T23:02:42.208Z,12.61
2023-05-17T23:05:13.313Z,12.94
2023-05-17T23:07:43.304Z,12.49
2023-05-17T23:10:12.999Z,12.65
2023-05-17T23:12:41.379Z,12.41
2023-05-17T23:15:11.294Z,12.61
2023-05-17T23:17:40.006Z,12.47
2023-05-17T23:20:12.198Z,12.59
2023-05-17T23:22:42.035Z,12.65
2023-05-17T23:25:11.811Z,12.46
2023-05-17T23:27:40.424Z,12.40
2023-05-17T23:30:09.963Z,12.48
2023-05-17T23:32:38.856Z,12.45
2023-05-17T23:35:10.106Z,12.40
2023-05-17T23:37:38.433Z,12.27
2023-05-17T23:40:10.704Z,12.65
2023-05-17T23:42:39.099Z,12.28
2023-05-17T23:45:09.473Z,12.58
2023-05-17T23:47:41.130Z,12.21
2023-05-17T23:52:39.840Z,12.24
2023-05-17T23:55:10.555Z,12.55
2023-05-17T23:57:40.303Z,12.22
